createdAt,value
2019-04-27T00:00:18.441Z,1003.77
2019-04-27T00:01:18.570Z,1003.79
2019-04-27T00:02:23.140Z,1003.75
2019-04-27T00:03:18.510Z,1003.76
2019-04-27T00:04:19.222Z,1003.80
2019-04-27T00:05:18.529Z,1003.75
2019-04-27T00:06:18.450Z,1003.75
2019-04-27T00:07:21.248Z,1003.72
2019-04-27T00:08:18.574Z,1003.79
2019-04-27T00:09:18.523Z,1003.71
2019-04-27T00:10:20.470Z,1003.70
2019-04-27T00:11:18.580Z,1003.72
2019-04-27T00:12:22.737Z,1003.69
2019-04-27T00:13:18.489Z,1003.65
2019-04-27T00:14:18.505Z,1003.64
2019-04-27T00:15:18.558Z,1003.64
2019-04-27T00:16:18.560Z,1003.65
2019-04-27T00:17:21.128Z,1003.66
2019-04-27T00:18:18.500Z,1003.66
2019-04-27T00:19:18.562Z,1003.66
2019-04-27T00:20:21.452Z,1003.69
2019-04-27T00:21:18.497Z,1003.69
2019-04-27T00:22:18.583Z,1003.67
2019-04-27T00:23:18.533Z,1003.68
2019-04-27T00:24:18.568Z,1003.68
2019-04-27T00:25:18.634Z,1003.64
2019-04-27T00:26:18.587Z,1003.61
2019-04-27T00:27:18.568Z,1003.63
2019-04-27T00:28:18.525Z,1003.62
2019-04-27T00:29:18.545Z,1003.61
2019-04-27T00:30:18.540Z,1003.60
2019-04-27T00:31:18.591Z,1003.66
2019-04-27T00:32:18.558Z,1003.63
2019-04-27T00:33:18.561Z,1003.63
2019-04-27T00:34:18.473Z,1003.65
2019-04-27T00:35:18.510Z,1003.62
2019-04-27T00:36:18.463Z,1003.64
2019-04-27T00:37:18.576Z,1003.59
2019-04-27T00:38:18.486Z,1003.56
2019-04-27T00:39:18.459Z,1003.56
2019-04-27T00:40:18.480Z,1003.54
2019-04-27T00:41:19.273Z,1003.52
2019-04-27T00:42:18.609Z,1003.48
2019-04-27T00:43:18.490Z,1003.50
2019-04-27T00:44:18.540Z,1003.52
2019-04-27T00:45:18.604Z,1003.48
2019-04-27T00:46:18.586Z,1003.51
2019-04-27T00:47:18.585Z,1003.46
2019-04-27T00:48:18.599Z,1003.43
2019-04-27T00:49:20.231Z,1003.41
2019-04-27T00:50:18.562Z,1003.42
2019-04-27T00:51:18.611Z,1003.42
2019-04-27T00:52:18.516Z,1003.43
2019-04-27T00:53:18.689Z,1003.40
2019-04-27T00:54:18.540Z,1003.42
2019-04-27T00:55:18.559Z,1003.47
2019-04-27T00:56:18.620Z,1003.47
2019-04-27T00:57:18.541Z,1003.47
2019-04-27T00:58:18.627Z,1003.45
2019-04-27T00:59:18.667Z,1003.45
2019-04-27T01:00:18.615Z,1003.42
2019-04-27T01:01:18.500Z,1003.40
2019-04-27T01:02:18.629Z,1003.39
2019-04-27T01:03:18.553Z,1003.38
2019-04-27T01:04:18.618Z,1003.42
2019-04-27T01:05:18.618Z,1003.39
2019-04-27T01:06:18.521Z,1003.39
2019-04-27T01:07:18.561Z,1003.38
2019-04-27T01:08:18.642Z,1003.39
2019-04-27T01:09:18.570Z,1003.41
2019-04-27T01:10:18.610Z,1003.37
2019-04-27T01:11:18.576Z,1003.36
2019-04-27T01:12:18.566Z,1003.37
2019-04-27T01:13:18.572Z,1003.36
2019-04-27T01:14:18.567Z,1003.34
2019-04-27T01:15:18.631Z,1003.34
2019-04-27T01:16:22.043Z,1003.32
2019-04-27T01:17:18.965Z,1003.32
2019-04-27T01:18:19.503Z,1003.31
2019-04-27T01:19:19.113Z,1003.32
2019-04-27T01:20:18.636Z,1003.29
2019-04-27T01:21:19.427Z,1003.24
2019-04-27T01:22:18.909Z,1003.27
2019-04-27T01:23:19.340Z,1003.22
2019-04-27T01:24:18.975Z,1003.19
2019-04-27T01:25:18.993Z,1003.19
2019-04-27T01:26:18.661Z,1003.20
2019-04-27T01:27:18.995Z,1003.22
2019-04-27T01:28:20.632Z,1003.23
2019-04-27T01:29:19.294Z,1003.25
2019-04-27T01:30:18.927Z,1003.20
2019-04-27T01:31:19.296Z,1003.21
2019-04-27T01:32:20.476Z,1003.18
2019-04-27T01:33:19.803Z,1003.19
2019-04-27T01:34:19.243Z,1003.18
2019-04-27T01:35:18.772Z,1003.18
2019-04-27T01:36:19.001Z,1003.13
2019-04-27T01:37:19.692Z,1003.13
2019-04-27T01:38:19.217Z,1003.12
2019-04-27T01:39:18.926Z,1003.10
2019-04-27T01:40:19.361Z,1003.10
2019-04-27T01:41:19.219Z,1003.06
2019-04-27T01:42:19.321Z,1003.09
2019-04-27T01:43:18.742Z,1003.09
2019-04-27T01:44:19.407Z,1003.08
2019-04-27T01:45:18.748Z,1003.09
2019-04-27T01:46:19.561Z,1003.12
2019-04-27T01:47:18.776Z,1003.06
2019-04-27T01:48:23.684Z,1003.09
2019-04-27T01:49:19.362Z,1003.09
2019-04-27T01:50:18.925Z,1003.10
2019-04-27T01:51:20.777Z,1003.06
2019-04-27T01:52:19.411Z,1003.07
2019-04-27T01:53:19.099Z,1003.07
2019-04-27T01:54:19.347Z,1003.05
2019-04-27T01:55:18.914Z,1003.05
2019-04-27T01:56:19.450Z,1003.04
2019-04-27T01:57:19.420Z,1003.06
2019-04-27T01:58:20.177Z,1003.06
2019-04-27T01:59:19.910Z,1003.02
2019-04-27T02:00:19.321Z,1003.06
2019-04-27T02:01:18.818Z,1003.05
2019-04-27T02:02:19.111Z,1003.03
2019-04-27T02:03:19.765Z,1003.00
2019-04-27T02:04:19.301Z,1003.01
2019-04-27T02:05:19.119Z,1003.00
2019-04-27T02:06:19.042Z,1003.04
2019-04-27T02:07:19.163Z,1002.99
2019-04-27T02:08:19.569Z,1003.00
2019-04-27T02:09:18.832Z,1003.02
2019-04-27T02:10:19.143Z,1003.03
2019-04-27T02:11:18.663Z,1003.03
2019-04-27T02:12:19.272Z,1003.01
2019-04-27T02:13:18.944Z,1003.02
2019-04-27T02:14:19.588Z,1003.02
2019-04-27T02:15:19.186Z,1003.02
2019-04-27T02:16:18.840Z,1003.02
2019-04-27T02:17:18.833Z,1002.98
2019-04-27T02:18:19.431Z,1002.98
2019-04-27T02:19:19.398Z,1003.01
2019-04-27T02:20:19.770Z,1003.00
2019-04-27T02:21:19.308Z,1003.00
2019-04-27T02:22:18.848Z,1002.98
2019-04-27T02:23:19.194Z,1002.97
2019-04-27T02:24:18.713Z,1002.97
2019-04-27T02:25:19.261Z,1002.98
2019-04-27T02:26:19.206Z,1002.98
2019-04-27T02:27:18.751Z,1002.98
2019-04-27T02:28:19.475Z,1002.98
2019-04-27T02:29:18.926Z,1003.01
2019-04-27T02:30:20.666Z,1003.00
2019-04-27T02:31:19.346Z,1003.01
2019-04-27T02:32:20.348Z,1002.98
2019-04-27T02:33:20.284Z,1003.04
2019-04-27T02:34:19.945Z,1003.01
2019-04-27T02:35:19.286Z,1003.04
2019-04-27T02:36:20.207Z,1003.00
2019-04-27T02:37:20.034Z,1002.98
2019-04-27T02:38:20.094Z,1002.98
2019-04-27T02:39:19.728Z,1002.97
2019-04-27T02:40:20.484Z,1002.98
2019-04-27T02:41:19.913Z,1002.99
2019-04-27T02:42:19.986Z,1002.96
2019-04-27T02:43:19.406Z,1002.97
2019-04-27T02:44:19.998Z,1002.96
2019-04-27T02:45:19.930Z,1002.99
2019-04-27T02:46:19.996Z,1002.93
2019-04-27T02:47:20.741Z,1003.00
2019-04-27T02:48:19.874Z,1002.96
2019-04-27T02:49:20.180Z,1002.95
2019-04-27T02:50:19.299Z,1002.96
2019-04-27T02:51:20.319Z,1002.94
2019-04-27T02:52:19.813Z,1002.93
2019-04-27T02:53:19.709Z,1002.88
2019-04-27T02:54:20.363Z,1002.91
2019-04-27T02:55:19.786Z,1002.90
2019-04-27T02:56:20.178Z,1002.92
2019-04-27T02:57:19.851Z,1002.91
2019-04-27T02:58:21.503Z,1002.88
2019-04-27T02:59:19.837Z,1002.84
2019-04-27T03:00:20.561Z,1002.83
2019-04-27T03:01:20.039Z,1002.85
2019-04-27T03:02:19.624Z,1002.80
2019-04-27T03:03:20.422Z,1002.76
2019-04-27T03:04:20.431Z,1002.72
2019-04-27T03:05:19.661Z,1002.75
2019-04-27T03:06:19.907Z,1002.78
2019-04-27T03:07:20.142Z,1002.76
2019-04-27T03:08:20.102Z,1002.74
2019-04-27T03:09:20.499Z,1002.69
2019-04-27T03:10:19.915Z,1002.66
2019-04-27T03:11:23.039Z,1002.64
2019-04-27T03:12:19.217Z,1002.65
2019-04-27T03:13:20.043Z,1002.62
2019-04-27T03:14:29.373Z,1002.64
2019-04-27T03:15:22.759Z,1002.61
2019-04-27T03:16:20.464Z,1002.62
2019-04-27T03:17:19.928Z,1002.60
2019-04-27T03:18:19.473Z,1002.61
2019-04-27T03:19:21.663Z,1002.56
2019-04-27T03:20:20.232Z,1002.58
2019-04-27T03:21:20.153Z,1002.56
2019-04-27T03:22:19.502Z,1002.55
2019-04-27T03:23:19.983Z,1002.56
2019-04-27T03:24:19.952Z,1002.55
2019-04-27T03:25:20.195Z,1002.54
2019-04-27T03:26:19.562Z,1002.53
2019-04-27T03:27:20.137Z,1002.53
2019-04-27T03:28:20.022Z,1002.50
2019-04-27T03:29:20.162Z,1002.48
2019-04-27T03:30:23.055Z,1002.48
2019-04-27T03:31:21.360Z,1002.48
2019-04-27T03:32:22.629Z,1002.45
2019-04-27T03:33:22.198Z,1002.45
2019-04-27T03:34:22.219Z,1002.44
2019-04-27T03:35:22.799Z,1002.43
2019-04-27T03:36:21.544Z,1002.45
2019-04-27T03:37:20.314Z,1002.47
2019-04-27T03:38:19.709Z,1002.42
2019-04-27T03:39:19.904Z,1002.47
2019-04-27T03:40:20.387Z,1002.48
2019-04-27T03:41:19.333Z,1002.44
2019-04-27T03:42:20.734Z,1002.46
2019-04-27T03:43:20.054Z,1002.46
2019-04-27T03:44:19.274Z,1002.43
2019-04-27T03:45:19.992Z,1002.43
2019-04-27T03:46:20.513Z,1002.43
2019-04-27T03:47:19.747Z,1002.43
2019-04-27T03:48:20.434Z,1002.43
2019-04-27T03:49:31.910Z,1002.39
2019-04-27T03:50:20.431Z,1002.38
2019-04-27T03:51:19.947Z,1002.38
2019-04-27T03:52:19.809Z,1002.43
2019-04-27T03:53:20.486Z,1002.41
2019-04-27T03:54:19.405Z,1002.44
2019-04-27T03:55:19.719Z,1002.46
2019-04-27T03:56:20.031Z,1002.52
2019-04-27T03:57:19.929Z,1002.56
2019-04-27T03:58:21.716Z,1002.52
2019-04-27T03:59:19.573Z,1002.52
2019-04-27T04:00:20.003Z,1002.55
2019-04-27T04:01:20.302Z,1002.55
2019-04-27T04:02:19.806Z,1002.52
2019-04-27T04:03:20.262Z,1002.59
2019-04-27T04:04:19.530Z,1002.58
2019-04-27T04:05:19.843Z,1002.57
2019-04-27T04:06:19.292Z,1002.57
2019-04-27T04:07:19.744Z,1002.60
2019-04-27T04:08:19.234Z,1002.61
2019-04-27T04:09:19.575Z,1002.60
2019-04-27T04:10:19.836Z,1002.61
2019-04-27T04:11:19.849Z,1002.62
2019-04-27T04:12:19.801Z,1002.64
2019-04-27T04:13:20.406Z,1002.65
2019-04-27T04:14:20.307Z,1002.64
2019-04-27T04:15:19.972Z,1002.60
2019-04-27T04:16:20.187Z,1002.63
2019-04-27T04:17:20.340Z,1002.62
2019-04-27T04:18:19.618Z,1002.67
2019-04-27T04:19:19.706Z,1002.62
2019-04-27T04:20:20.142Z,1002.66
2019-04-27T04:21:19.446Z,1002.66
2019-04-27T04:22:19.950Z,1002.61
2019-04-27T04:23:20.418Z,1002.65
2019-04-27T04:24:19.951Z,1002.64
2019-04-27T04:25:19.994Z,1002.61
2019-04-27T04:26:19.318Z,1002.63
2019-04-27T04:27:20.097Z,1002.65
2019-04-27T04:28:19.869Z,1002.61
2019-04-27T04:29:20.315Z,1002.64
2019-04-27T04:30:19.942Z,1002.61
2019-04-27T04:31:20.859Z,1002.64
2019-04-27T04:32:19.340Z,1002.64
2019-04-27T04:33:20.684Z,1002.65
2019-04-27T04:34:19.759Z,1002.62
2019-04-27T04:35:21.238Z,1002.67
2019-04-27T04:36:20.167Z,1002.67
2019-04-27T04:37:19.580Z,1002.67
2019-04-27T04:38:20.635Z,1002.65
2019-04-27T04:39:19.803Z,1002.66
2019-04-27T04:40:19.633Z,1002.68
2019-04-27T04:41:20.011Z,1002.69
2019-04-27T04:42:19.746Z,1002.72
2019-04-27T04:43:19.981Z,1002.78
2019-04-27T04:44:20.372Z,1002.75
2019-04-27T04:45:20.300Z,1002.71
2019-04-27T04:46:19.097Z,1002.69
2019-04-27T04:47:19.559Z,1002.70
2019-04-27T04:48:20.079Z,1002.72
2019-04-27T04:49:19.399Z,1002.71
2019-04-27T04:50:20.304Z,1002.70
2019-04-27T04:51:20.097Z,1002.67
2019-04-27T04:52:19.729Z,1002.69
2019-04-27T04:53:20.590Z,1002.66
2019-04-27T04:54:19.816Z,1002.68
2019-04-27T04:55:20.415Z,1002.70
2019-04-27T04:56:18.881Z,1002.67
2019-04-27T04:57:21.583Z,1002.65
2019-04-27T04:58:20.895Z,1002.66
2019-04-27T04:59:20.188Z,1002.67
2019-04-27T05:00:19.897Z,1002.69
2019-04-27T05:01:19.700Z,1002.70
2019-04-27T05:02:19.206Z,1002.64
2019-04-27T05:03:19.578Z,1002.65
2019-04-27T05:04:19.374Z,1002.65
2019-04-27T05:05:19.369Z,1002.67
2019-04-27T05:06:19.057Z,1002.66
2019-04-27T05:07:19.464Z,1002.66
2019-04-27T05:08:19.120Z,1002.68
2019-04-27T05:09:19.330Z,1002.66
2019-04-27T05:10:18.984Z,1002.68
2019-04-27T05:11:19.633Z,1002.64
2019-04-27T05:12:19.080Z,1002.67
2019-04-27T05:13:19.346Z,1002.69
2019-04-27T05:14:19.927Z,1002.69
2019-04-27T05:15:20.625Z,1002.68
2019-04-27T05:16:19.052Z,1002.67
2019-04-27T05:17:19.620Z,1002.69
2019-04-27T05:18:19.267Z,1002.63
2019-04-27T05:19:18.961Z,1002.63
2019-04-27T05:20:24.410Z,1002.65
2019-04-27T05:21:18.683Z,1002.56
2019-04-27T05:22:19.557Z,1002.59
2019-04-27T05:23:18.811Z,1002.56
2019-04-27T05:24:19.328Z,1002.63
2019-04-27T05:25:18.722Z,1002.58
2019-04-27T05:26:19.401Z,1002.62
2019-04-27T05:27:19.148Z,1002.60
2019-04-27T05:28:18.904Z,1002.65
2019-04-27T05:29:19.236Z,1002.64
2019-04-27T05:30:19.632Z,1002.65
2019-04-27T05:31:19.469Z,1002.59
2019-04-27T05:32:18.882Z,1002.62
2019-04-27T05:33:18.914Z,1002.59
2019-04-27T05:34:19.714Z,1002.58
2019-04-27T05:35:19.390Z,1002.56
2019-04-27T05:36:19.260Z,1002.58
2019-04-27T05:37:27.641Z,1002.60
2019-04-27T05:38:19.399Z,1002.64
2019-04-27T05:39:24.711Z,1002.68
2019-04-27T05:40:19.020Z,1002.69
2019-04-27T05:41:18.868Z,1002.66
2019-04-27T05:42:20.027Z,1002.64
2019-04-27T05:43:19.400Z,1002.63
2019-04-27T05:44:20.681Z,1002.58
2019-04-27T05:45:19.957Z,1002.56
2019-04-27T05:46:19.192Z,1002.56
2019-04-27T05:47:19.123Z,1002.55
2019-04-27T05:48:27.419Z,1002.50
2019-04-27T05:49:18.855Z,1002.49
2019-04-27T05:50:21.942Z,1002.47
2019-04-27T05:51:19.746Z,1002.51
2019-04-27T05:52:18.678Z,1002.49
2019-04-27T05:53:18.986Z,1002.48
2019-04-27T05:54:19.281Z,1002.53
2019-04-27T05:55:19.196Z,1002.55
2019-04-27T05:56:19.296Z,1002.57
2019-04-27T05:57:19.573Z,1002.54
2019-04-27T05:58:19.536Z,1002.53
2019-04-27T05:59:19.844Z,1002.52
2019-04-27T06:00:19.212Z,1002.52
2019-04-27T06:01:19.648Z,1002.49
2019-04-27T06:02:20.348Z,1002.50
2019-04-27T06:03:20.956Z,1002.53
2019-04-27T06:04:19.424Z,1002.56
2019-04-27T06:05:19.079Z,1002.62
2019-04-27T06:06:19.724Z,1002.66
2019-04-27T06:07:19.376Z,1002.61
2019-04-27T06:08:20.952Z,1002.59
2019-04-27T06:09:19.416Z,1002.54
2019-04-27T06:10:19.794Z,1002.52
2019-04-27T06:11:19.631Z,1002.50
2019-04-27T06:12:19.089Z,1002.49
2019-04-27T06:13:19.059Z,1002.47
2019-04-27T06:14:19.309Z,1002.43
2019-04-27T06:15:19.838Z,1002.40
2019-04-27T06:16:19.515Z,1002.40
2019-04-27T06:17:19.509Z,1002.43
2019-04-27T06:18:19.340Z,1002.35
2019-04-27T06:19:19.382Z,1002.34
2019-04-27T06:20:18.972Z,1002.27
2019-04-27T06:21:19.621Z,1002.31
2019-04-27T06:22:19.027Z,1002.33
2019-04-27T06:23:20.938Z,1002.32
2019-04-27T06:24:18.782Z,1002.28
2019-04-27T06:25:21.592Z,1002.32
2019-04-27T06:26:20.151Z,1002.31
2019-04-27T06:27:20.950Z,1002.29
2019-04-27T06:28:19.093Z,1002.27
2019-04-27T06:29:19.568Z,1002.24
2019-04-27T06:30:19.366Z,1002.25
2019-04-27T06:31:19.635Z,1002.23
2019-04-27T06:32:19.208Z,1002.21
2019-04-27T06:33:29.553Z,1002.25
2019-04-27T06:34:19.370Z,1002.23
2019-04-27T06:35:18.851Z,1002.29
2019-04-27T06:36:19.903Z,1002.30
2019-04-27T06:37:19.374Z,1002.30
2019-04-27T06:38:19.124Z,1002.30
2019-04-27T06:39:20.494Z,1002.26
2019-04-27T06:40:18.899Z,1002.26
2019-04-27T06:41:18.985Z,1002.27
2019-04-27T06:42:20.747Z,1002.30
2019-04-27T06:43:18.993Z,1002.27
2019-04-27T06:44:19.625Z,1002.27
2019-04-27T06:45:19.713Z,1002.21
2019-04-27T06:46:19.961Z,1002.19
2019-04-27T06:47:19.180Z,1002.19
2019-04-27T06:48:19.418Z,1002.20
2019-04-27T06:49:19.461Z,1002.17
2019-04-27T06:50:19.603Z,1002.15
2019-04-27T06:51:19.566Z,1002.12
2019-04-27T06:52:18.850Z,1002.09
2019-04-27T06:53:19.216Z,1002.06
2019-04-27T06:54:19.743Z,1002.11
2019-04-27T06:55:18.954Z,1002.08
2019-04-27T06:56:18.861Z,1002.09
2019-04-27T06:57:19.262Z,1002.12
2019-04-27T06:58:20.048Z,1002.11
2019-04-27T06:59:18.868Z,1002.10
2019-04-27T07:00:19.054Z,1002.11
2019-04-27T07:01:19.099Z,1002.10
2019-04-27T07:02:19.114Z,1002.12
2019-04-27T07:03:19.022Z,1002.11
2019-04-27T07:04:19.600Z,1002.08
2019-04-27T07:05:20.352Z,1002.07
2019-04-27T07:06:18.832Z,1002.05
2019-04-27T07:07:19.483Z,1002.01
2019-04-27T07:08:18.764Z,1002.04
2019-04-27T07:09:19.537Z,1002.07
2019-04-27T07:10:18.762Z,1002.02
2019-04-27T07:11:19.720Z,1002.03
2019-04-27T07:12:19.171Z,1002.02
2019-04-27T07:13:19.609Z,1002.06
2019-04-27T07:14:19.725Z,1002.04
2019-04-27T07:15:20.502Z,1002.01
2019-04-27T07:16:19.578Z,1002.04
2019-04-27T07:17:19.115Z,1002.02
2019-04-27T07:18:18.800Z,1002.03
2019-04-27T07:19:19.102Z,1001.97
2019-04-27T07:20:18.976Z,1001.93
2019-04-27T07:21:24.503Z,1001.94
2019-04-27T07:22:20.055Z,1001.93
2019-04-27T07:23:20.892Z,1001.96
2019-04-27T07:24:19.631Z,1001.96
2019-04-27T07:25:18.963Z,1001.96
2019-04-27T07:26:19.116Z,1001.90
2019-04-27T07:27:21.202Z,1001.93
2019-04-27T07:28:19.082Z,1001.89
2019-04-27T07:29:19.462Z,1001.86
2019-04-27T07:30:19.137Z,1001.85
2019-04-27T07:31:19.279Z,1001.88
2019-04-27T07:32:19.370Z,1001.88
2019-04-27T07:33:18.804Z,1001.94
2019-04-27T07:34:19.108Z,1001.88
2019-04-27T07:35:19.668Z,1001.85
2019-04-27T07:36:18.913Z,1001.86
2019-04-27T07:37:19.577Z,1001.84
2019-04-27T07:38:19.249Z,1001.85
2019-04-27T07:39:19.322Z,1001.82
2019-04-27T07:40:18.907Z,1001.86
2019-04-27T07:41:19.462Z,1001.87
2019-04-27T07:42:20.781Z,1001.83
2019-04-27T07:43:21.088Z,1001.78
2019-04-27T07:44:19.413Z,1001.77
2019-04-27T07:45:19.566Z,1001.78
2019-04-27T07:46:18.831Z,1001.80
2019-04-27T07:47:19.470Z,1001.81
2019-04-27T07:48:18.943Z,1001.78
2019-04-27T07:49:19.064Z,1001.80
2019-04-27T07:50:19.434Z,1001.75
2019-04-27T07:51:31.158Z,1001.74
2019-04-27T07:52:20.459Z,1001.73
2019-04-27T07:53:19.391Z,1001.71
2019-04-27T07:54:19.020Z,1001.74
2019-04-27T07:55:18.901Z,1001.76
2019-04-27T07:56:19.155Z,1001.73
2019-04-27T07:57:19.690Z,1001.74
2019-04-27T07:58:20.595Z,1001.72
2019-04-27T07:59:18.983Z,1001.75
2019-04-27T08:00:19.115Z,1001.67
2019-04-27T08:01:19.338Z,1001.65
2019-04-27T08:02:19.169Z,1001.67
2019-04-27T08:03:19.538Z,1001.64
2019-04-27T08:04:18.910Z,1001.66
2019-04-27T08:05:19.280Z,1001.68
2019-04-27T08:06:19.069Z,1001.74
2019-04-27T08:07:19.638Z,1001.74
2019-04-27T08:08:19.062Z,1001.66
2019-04-27T08:09:19.134Z,1001.68
2019-04-27T08:10:19.468Z,1001.70
2019-04-27T08:11:19.303Z,1001.66
2019-04-27T08:12:20.866Z,1001.66
2019-04-27T08:13:19.491Z,1001.60
2019-04-27T08:14:18.911Z,1001.58
2019-04-27T08:15:19.032Z,1001.57
2019-04-27T08:16:20.765Z,1001.58
2019-04-27T08:17:19.298Z,1001.59
2019-04-27T08:18:19.078Z,1001.59
2019-04-27T08:19:19.662Z,1001.55
2019-04-27T08:20:21.154Z,1001.53
2019-04-27T08:21:18.995Z,1001.55
2019-04-27T08:22:19.540Z,1001.54
2019-04-27T08:23:19.516Z,1001.54
2019-04-27T08:24:19.442Z,1001.49
2019-04-27T08:25:19.066Z,1001.48
2019-04-27T08:26:18.858Z,1001.47
2019-04-27T08:27:19.450Z,1001.47
2019-04-27T08:28:18.930Z,1001.49
2019-04-27T08:29:18.863Z,1001.44
2019-04-27T08:30:19.436Z,1001.45
2019-04-27T08:31:18.932Z,1001.48
2019-04-27T08:32:19.612Z,1001.46
2019-04-27T08:33:19.131Z,1001.47
2019-04-27T08:34:18.910Z,1001.48
2019-04-27T08:35:19.457Z,1001.49
2019-04-27T08:36:19.126Z,1001.43
2019-04-27T08:37:18.914Z,1001.46
2019-04-27T08:38:20.584Z,1001.47
2019-04-27T08:39:18.891Z,1001.46
2019-04-27T08:40:19.404Z,1001.45
2019-04-27T08:41:19.708Z,1001.46
2019-04-27T08:42:19.414Z,1001.44
2019-04-27T08:43:19.167Z,1001.44
2019-04-27T08:44:19.428Z,1001.40
2019-04-27T08:45:19.413Z,1001.40
2019-04-27T08:46:18.877Z,1001.37
2019-04-27T08:47:19.474Z,1001.40
2019-04-27T08:48:33.511Z,1001.34
2019-04-27T08:49:18.877Z,1001.33
2019-04-27T08:50:19.250Z,1001.28
2019-04-27T08:51:19.587Z,1001.29
2019-04-27T08:52:19.387Z,1001.29
2019-04-27T08:53:18.887Z,1001.27
2019-04-27T08:54:19.243Z,1001.21
2019-04-27T08:55:19.650Z,1001.19
2019-04-27T08:56:19.411Z,1001.13
2019-04-27T08:57:18.991Z,1001.11
2019-04-27T08:58:19.699Z,1001.09
2019-04-27T08:59:19.418Z,1001.04
2019-04-27T09:00:19.390Z,1001.04
2019-04-27T09:01:20.820Z,1001.02
2019-04-27T09:02:19.634Z,1001.02
2019-04-27T09:03:19.350Z,1001.01
2019-04-27T09:04:20.139Z,1000.98
2019-04-27T09:05:19.279Z,1001.00
2019-04-27T09:06:19.059Z,1001.06
2019-04-27T09:08:19.139Z,1001.10
2019-04-27T09:09:19.389Z,1001.04
2019-04-27T09:10:18.903Z,1001.11
2019-04-27T09:11:20.543Z,1001.10
2019-04-27T09:12:19.655Z,1001.10
2019-04-27T09:13:19.478Z,1001.12
2019-04-27T09:14:19.338Z,1001.19
2019-04-27T09:15:19.291Z,1001.19
2019-04-27T09:16:18.899Z,1001.15
2019-04-27T09:17:19.394Z,1001.14
2019-04-27T09:18:19.257Z,1001.12
2019-04-27T09:19:18.926Z,1001.08
2019-04-27T09:20:18.968Z,1001.07
2019-04-27T09:21:19.197Z,1001.02
2019-04-27T09:22:20.724Z,1001.05
2019-04-27T09:23:18.910Z,1000.99
2019-04-27T09:24:18.964Z,1000.99
2019-04-27T09:25:19.403Z,1000.99
2019-04-27T09:26:18.955Z,1001.04
2019-04-27T09:27:19.851Z,1001.05
2019-04-27T09:28:20.284Z,1001.04
2019-04-27T09:29:19.812Z,1000.93
2019-04-27T09:30:19.173Z,1000.93
2019-04-27T09:31:19.605Z,1001.01
2019-04-27T09:32:19.195Z,1000.98
2019-04-27T09:33:18.855Z,1000.95
2019-04-27T09:34:19.009Z,1000.94
2019-04-27T09:35:18.922Z,1000.90
2019-04-27T09:36:18.980Z,1000.87
2019-04-27T09:37:18.977Z,1000.82
2019-04-27T09:38:18.970Z,1000.82
2019-04-27T09:39:19.003Z,1000.78
2019-04-27T09:40:18.991Z,1000.79
2019-04-27T09:41:18.917Z,1000.79
2019-04-27T09:42:18.917Z,1000.79
2019-04-27T09:43:18.985Z,1000.76
2019-04-27T09:44:18.844Z,1000.78
2019-04-27T09:45:18.964Z,1000.75
2019-04-27T09:46:18.866Z,1000.72
2019-04-27T09:47:18.919Z,1000.67
2019-04-27T09:48:18.973Z,1000.68
2019-04-27T09:49:18.878Z,1000.68
2019-04-27T09:50:18.877Z,1000.63
2019-04-27T09:51:18.969Z,1000.66
2019-04-27T09:52:26.184Z,1000.66
2019-04-27T09:53:18.927Z,1000.63
2019-04-27T09:54:18.911Z,1000.61
2019-04-27T09:55:18.865Z,1000.63
2019-04-27T09:56:18.923Z,1000.60
2019-04-27T09:57:18.950Z,1000.60
2019-04-27T09:58:18.938Z,1000.58
2019-04-27T09:59:18.931Z,1000.59
2019-04-27T10:00:18.927Z,1000.57
2019-04-27T10:01:18.928Z,1000.59
2019-04-27T10:02:18.930Z,1000.57
2019-04-27T10:03:18.863Z,1000.60
2019-04-27T10:04:18.998Z,1000.58
2019-04-27T10:05:18.934Z,1000.55
2019-04-27T10:06:18.998Z,1000.55
2019-04-27T10:07:18.937Z,1000.56
2019-04-27T10:08:18.937Z,1000.59
2019-04-27T10:09:19.000Z,1000.57
2019-04-27T10:10:18.934Z,1000.52
2019-04-27T10:11:18.935Z,1000.58
2019-04-27T10:12:19.002Z,1000.57
2019-04-27T10:13:19.005Z,1000.59
2019-04-27T10:14:18.981Z,1000.50
2019-04-27T10:15:18.868Z,1000.55
2019-04-27T10:16:18.957Z,1000.57
2019-04-27T10:17:18.923Z,1000.54
2019-04-27T10:18:18.854Z,1000.56
2019-04-27T10:19:28.585Z,1000.54
2019-04-27T10:20:19.965Z,1000.50
2019-04-27T10:21:18.916Z,1000.56
2019-04-27T10:22:18.933Z,1000.57
2019-04-27T10:23:18.870Z,1000.53
2019-04-27T10:24:18.889Z,1000.52
2019-04-27T10:25:18.975Z,1000.55
2019-04-27T10:26:18.993Z,1000.61
2019-04-27T10:27:19.004Z,1000.56
2019-04-27T10:28:19.005Z,1000.50
2019-04-27T10:29:18.952Z,1000.48
2019-04-27T10:30:19.008Z,1000.49
2019-04-27T10:31:18.971Z,1000.46
2019-04-27T10:32:18.896Z,1000.52
2019-04-27T10:33:18.949Z,1000.59
2019-04-27T10:34:18.951Z,1000.52
2019-04-27T10:35:18.960Z,1000.54
2019-04-27T10:36:18.953Z,1000.51
2019-04-27T10:37:19.021Z,1000.50
2019-04-27T10:38:19.049Z,1000.47
2019-04-27T10:39:18.974Z,1000.45
2019-04-27T10:40:19.033Z,1000.48
2019-04-27T10:41:18.959Z,1000.48
2019-04-27T10:42:18.961Z,1000.49
2019-04-27T10:43:18.965Z,1000.53
2019-04-27T10:44:19.017Z,1000.49
2019-04-27T10:45:18.953Z,1000.48
2019-04-27T10:46:18.957Z,1000.49
2019-04-27T10:47:18.919Z,1000.44
2019-04-27T10:48:19.023Z,1000.46
2019-04-27T10:49:19.020Z,1000.50
2019-04-27T10:50:18.967Z,1000.43
2019-04-27T10:51:19.027Z,1000.43
2019-04-27T10:52:18.971Z,1000.43
2019-04-27T10:53:19.027Z,1000.42
2019-04-27T10:54:18.971Z,1000.45
2019-04-27T10:55:18.980Z,1000.40
2019-04-27T10:56:19.047Z,1000.41
2019-04-27T10:57:19.038Z,1000.40
2019-04-27T10:58:18.939Z,1000.36
2019-04-27T10:59:19.038Z,1000.34
2019-04-27T11:00:19.041Z,1000.40
2019-04-27T11:01:19.003Z,1000.37
2019-04-27T11:02:19.044Z,1000.36
2019-04-27T11:03:19.043Z,1000.36
2019-04-27T11:04:19.027Z,1000.34
2019-04-27T11:05:18.909Z,1000.32
2019-04-27T11:06:18.981Z,1000.32
2019-04-27T11:07:18.915Z,1000.28
2019-04-27T11:08:18.973Z,1000.33
2019-04-27T11:09:19.033Z,1000.28
2019-04-27T11:10:18.979Z,1000.27
2019-04-27T11:11:18.975Z,1000.30
2019-04-27T11:12:18.994Z,1000.27
2019-04-27T11:13:19.037Z,1000.27
2019-04-27T11:14:19.041Z,1000.23
2019-04-27T11:15:18.962Z,1000.28
2019-04-27T11:16:19.046Z,1000.27
2019-04-27T11:17:19.047Z,1000.26
2019-04-27T11:18:19.018Z,1000.30
2019-04-27T11:19:18.978Z,1000.30
2019-04-27T11:20:19.046Z,1000.27
2019-04-27T11:21:19.047Z,1000.30
2019-04-27T11:22:19.049Z,1000.28
2019-04-27T11:23:18.984Z,1000.25
2019-04-27T11:24:19.002Z,1000.26
2019-04-27T11:25:19.057Z,1000.27
2019-04-27T11:26:19.069Z,1000.23
2019-04-27T11:27:19.059Z,1000.22
2019-04-27T11:28:19.064Z,1000.23
2019-04-27T11:29:19.069Z,1000.22
2019-04-27T11:30:18.996Z,1000.24
2019-04-27T11:31:19.062Z,1000.25
2019-04-27T11:32:19.001Z,1000.26
2019-04-27T11:33:18.993Z,1000.23
2019-04-27T11:34:18.985Z,1000.30
2019-04-27T11:35:18.982Z,1000.23
2019-04-27T11:36:19.007Z,1000.25
2019-04-27T11:37:18.972Z,1000.27
2019-04-27T11:38:19.061Z,1000.26
2019-04-27T11:39:21.147Z,1000.28
2019-04-27T11:40:18.972Z,1000.28
2019-04-27T11:41:19.063Z,1000.23
2019-04-27T11:42:18.971Z,1000.31
2019-04-27T11:43:18.985Z,1000.33
2019-04-27T11:44:19.072Z,1000.34
2019-04-27T11:45:19.026Z,1000.31
2019-04-27T11:46:19.050Z,1000.33
2019-04-27T11:47:19.012Z,1000.26
2019-04-27T11:48:19.074Z,1000.25
2019-04-27T11:49:19.008Z,1000.26
2019-04-27T11:50:19.088Z,1000.26
2019-04-27T11:51:19.076Z,1000.27
2019-04-27T11:52:19.078Z,1000.26
2019-04-27T11:53:22.580Z,1000.24
2019-04-27T11:54:19.079Z,1000.26
2019-04-27T11:55:19.024Z,1000.25
2019-04-27T11:56:19.089Z,1000.25
2019-04-27T11:57:19.044Z,1000.29
2019-04-27T11:58:19.019Z,1000.27
2019-04-27T11:59:19.016Z,1000.27
2019-04-27T12:00:19.026Z,1000.29
2019-04-27T12:01:19.020Z,1000.27
2019-04-27T12:02:19.088Z,1000.28
2019-04-27T12:03:19.023Z,1000.27
2019-04-27T12:04:18.946Z,1000.31
2019-04-27T12:05:19.064Z,1000.29
2019-04-27T12:06:19.010Z,1000.30